sensor_id;sensor_type;location;lat;lon;timestamp;pressure;altitude;pressure_sealevel;temperature;humidity
75420;BME280;63998;52.488;13.428;2023-04-26T00:02:14;100856.47;;;5.30;61.00
75420;BME280;63998;52.488;13.428;2023-04-26T00:04:42;100853.13;;;5.34;61.71
75420;BME280;63998;52.488;13.428;2023-04-26T00:07:08;100871.94;;;5.30;61.76
75420;BME280;63998;52.488;13.428;2023-04-26T00:09:35;100855.34;;;5.19;61.22
75420;BME280;63998;52.488;13.428;2023-04-26T00:12:00;100864.63;;;5.14;61.83
75420;BME280;63998;52.488;13.428;2023-04-26T00:14:27;100857.66;;;5.10;62.62
75420;BME280;63998;52.488;13.428;2023-04-26T00:16:55;100855.75;;;5.03;62.70
75420;BME280;63998;52.488;13.428;2023-04-26T00:19:22;100860.91;;;5.03;62.91
75420;BME280;63998;52.488;13.428;2023-04-26T00:21:48;100869.56;;;5.05;62.63
75420;BME280;63998;52.488;13.428;2023-04-26T00:24:14;100859.91;;;4.98;63.14
75420;BME280;63998;52.488;13.428;2023-04-26T00:26:40;100856.13;;;4.85;63.01
75420;BME280;63998;52.488;13.428;2023-04-26T00:29:05;100867.31;;;4.86;63.59
75420;BME280;63998;52.488;13.428;2023-04-26T00:31:33;100862.25;;;4.89;63.11
75420;BME280;63998;52.488;13.428;2023-04-26T00:33:59;100858.00;;;4.91;63.30
75420;BME280;63998;52.488;13.428;2023-04-26T00:36:24;100855.34;;;4.88;63.44
75420;BME280;63998;52.488;13.428;2023-04-26T00:38:50;100866.22;;;4.78;64.30
75420;BME280;63998;52.488;13.428;2023-04-26T00:41:15;100856.84;;;4.80;64.26
75420;BME280;63998;52.488;13.428;2023-04-26T00:43:41;100867.97;;;4.79;64.41
75420;BME280;63998;52.488;13.428;2023-04-26T00:46:09;100853.38;;;4.78;64.78
75420;BME280;63998;52.488;13.428;2023-04-26T00:48:37;100863.66;;;4.78;64.40
75420;BME280;63998;52.488;13.428;2023-04-26T00:51:05;100856.09;;;4.84;64.56
75420;BME280;63998;52.488;13.428;2023-04-26T00:53:32;100858.28;;;4.68;64.43
75420;BME280;63998;52.488;13.428;2023-04-26T00:55:59;100866.72;;;4.64;65.02
75420;BME280;63998;52.488;13.428;2023-04-26T00:58:25;100863.44;;;4.70;65.31
75420;BME280;63998;52.488;13.428;2023-04-26T01:00:51;100866.91;;;4.72;65.05
75420;BME280;63998;52.488;13.428;2023-04-26T01:03:18;100868.22;;;4.56;65.10
75420;BME280;63998;52.488;13.428;2023-04-26T01:05:44;100868.47;;;4.65;65.19
75420;BME280;63998;52.488;13.428;2023-04-26T01:08:10;100873.53;;;4.62;65.57
75420;BME280;63998;52.488;13.428;2023-04-26T01:10:35;100868.38;;;4.62;65.65
75420;BME280;63998;52.488;13.428;2023-04-26T01:13:01;100867.47;;;4.60;65.53
75420;BME280;63998;52.488;13.428;2023-04-26T01:15:30;100874.94;;;4.51;66.33
75420;BME280;63998;52.488;13.428;2023-04-26T01:17:57;100867.94;;;4.47;65.99
75420;BME280;63998;52.488;13.428;2023-04-26T01:20:23;100877.63;;;4.56;65.87
75420;BME280;63998;52.488;13.428;2023-04-26T01:22:50;100875.19;;;4.60;65.98
75420;BME280;63998;52.488;13.428;2023-04-26T01:25:16;100879.44;;;4.60;65.67
75420;BME280;63998;52.488;13.428;2023-04-26T01:27:44;100896.47;;;4.55;65.90
75420;BME280;63998;52.488;13.428;2023-04-26T01:30:10;100885.41;;;4.57;65.91
75420;BME280;63998;52.488;13.428;2023-04-26T01:32:35;100877.44;;;4.50;66.22
75420;BME280;63998;52.488;13.428;2023-04-26T01:35:01;100886.97;;;4.52;66.02
75420;BME280;63998;52.488;13.428;2023-04-26T01:37:26;100891.75;;;4.40;66.38
75420;BME280;63998;52.488;13.428;2023-04-26T01:39:54;100896.94;;;4.42;66.41
75420;BME280;63998;52.488;13.428;2023-04-26T01:42:19;100907.28;;;4.43;66.80
75420;BME280;63998;52.488;13.428;2023-04-26T01:44:47;100904.56;;;4.39;66.82
75420;BME280;63998;52.488;13.428;2023-04-26T01:47:13;100890.66;;;4.32;66.69
75420;BME280;63998;52.488;13.428;2023-04-26T01:49:41;100906.72;;;4.25;67.08
75420;BME280;63998;52.488;13.428;2023-04-26T01:52:06;100898.00;;;4.20;67.45
75420;BME280;63998;52.488;13.428;2023-04-26T01:54:31;100904.88;;;4.21;67.47
75420;BME280;63998;52.488;13.428;2023-04-26T01:56:57;100899.00;;;4.25;67.40
75420;BME280;63998;52.488;13.428;2023-04-26T01:59:24;100918.66;;;4.23;67.44
75420;BME280;63998;52.488;13.428;2023-04-26T02:01:53;100901.31;;;4.16;67.80
75420;BME280;63998;52.488;13.428;2023-04-26T02:04:18;100930.31;;;4.12;67.91
75420;BME280;63998;52.488;13.428;2023-04-26T02:06:44;100896.84;;;4.10;68.11
75420;BME280;63998;52.488;13.428;2023-04-26T02:09:09;100897.66;;;4.08;68.48
75420;BME280;63998;52.488;13.428;2023-04-26T02:11:34;100902.69;;;4.05;68.43
75420;BME280;63998;52.488;13.428;2023-04-26T02:14:02;100902.84;;;4.11;68.30
75420;BME280;63998;52.488;13.428;2023-04-26T02:16:27;100900.44;;;4.15;68.24
75420;BME280;63998;52.488;13.428;2023-04-26T02:18:53;100899.56;;;4.15;67.97
75420;BME280;63998;52.488;13.428;2023-04-26T02:21:21;100900.38;;;4.14;67.89
75420;BME280;63998;52.488;13.428;2023-04-26T02:23:47;100896.88;;;4.12;68.29
75420;BME280;63998;52.488;13.428;2023-04-26T02:26:13;100895.25;;;4.14;67.99
75420;BME280;63998;52.488;13.428;2023-04-26T02:28:40;100902.59;;;4.02;68.65
75420;BME280;63998;52.488;13.428;2023-04-26T02:31:06;100895.59;;;3.97;68.87
75420;BME280;63998;52.488;13.428;2023-04-26T02:33:34;100898.91;;;3.93;69.19
75420;BME280;63998;52.488;13.428;2023-04-26T02:36:04;100902.09;;;3.86;69.41
75420;BME280;63998;52.488;13.428;2023-04-26T02:38:34;100898.72;;;3.87;69.38
75420;BME280;63998;52.488;13.428;2023-04-26T02:41:02;100891.81;;;3.86;69.57
75420;BME280;63998;52.488;13.428;2023-04-26T02:43:28;100910.63;;;3.85;69.65
75420;BME280;63998;52.488;13.428;2023-04-26T02:45:53;100892.91;;;3.93;69.85
75420;BME280;63998;52.488;13.428;2023-04-26T02:48:22;100887.00;;;3.95;69.52
75420;BME280;63998;52.488;13.428;2023-04-26T02:50:50;100893.66;;;3.90;69.49
75420;BME280;63998;52.488;13.428;2023-04-26T02:53:16;100893.66;;;3.90;69.48
75420;BME280;63998;52.488;13.428;2023-04-26T02:55:42;100892.94;;;3.94;69.66
75420;BME280;63998;52.488;13.428;2023-04-26T02:58:07;100900.72;;;3.97;69.63
75420;BME280;63998;52.488;13.428;2023-04-26T03:00:33;100902.31;;;3.92;69.59
75420;BME280;63998;52.488;13.428;2023-04-26T03:02:59;100904.97;;;3.95;69.54
75420;BME280;63998;52.488;13.428;2023-04-26T03:05:24;100894.53;;;3.91;69.32
75420;BME280;63998;52.488;13.428;2023-04-26T03:07:50;100898.59;;;3.84;69.95
75420;BME280;63998;52.488;13.428;2023-04-26T03:10:18;100907.13;;;3.83;70.16
75420;BME280;63998;52.488;13.428;2023-04-26T03:12:43;100910.34;;;3.76;70.43
75420;BME280;63998;52.488;13.428;2023-04-26T03:15:09;100898.53;;;3.81;70.63
75420;BME280;63998;52.488;13.428;2023-04-26T03:17:39;100907.25;;;3.86;70.21
75420;BME280;63998;52.488;13.428;2023-04-26T03:20:05;100906.13;;;3.78;70.42
75420;BME280;63998;52.488;13.428;2023-04-26T03:22:31;100902.84;;;3.82;70.55
75420;BME280;63998;52.488;13.428;2023-04-26T03:24:58;100902.69;;;3.78;70.60
75420;BME280;63998;52.488;13.428;2023-04-26T03:27:24;100898.03;;;3.66;70.76
75420;BME280;63998;52.488;13.428;2023-04-26T03:29:49;100903.16;;;3.66;70.96
75420;BME280;63998;52.488;13.428;2023-04-26T03:32:15;100903.16;;;3.66;71.01
75420;BME280;63998;52.488;13.428;2023-04-26T03:34:40;100925.47;;;3.67;71.04
75420;BME280;63998;52.488;13.428;2023-04-26T03:37:07;100909.78;;;3.58;71.42
75420;BME280;63998;52.488;13.428;2023-04-26T03:39:33;100927.63;;;3.55;71.39
75420;BME280;63998;52.488;13.428;2023-04-26T03:41:58;100915.44;;;3.49;71.71
75420;BME280;63998;52.488;13.428;2023-04-26T03:44:26;100916.44;;;3.53;72.08
75420;BME280;63998;52.488;13.428;2023-04-26T03:46:51;100917.88;;;3.45;72.14
75420;BME280;63998;52.488;13.428;2023-04-26T03:49:17;100921.47;;;3.50;72.34
75420;BME280;63998;52.488;13.428;2023-04-26T03:51:42;100919.63;;;3.46;71.97
75420;BME280;63998;52.488;13.428;2023-04-26T03:54:08;100928.22;;;3.48;71.93
75420;BME280;63998;52.488;13.428;2023-04-26T03:56:33;100926.59;;;3.50;72.15
75420;BME280;63998;52.488;13.428;2023-04-26T03:59:01;100922.91;;;3.42;71.91
75420;BME280;63998;52.488;13.428;2023-04-26T04:01:28;100919.53;;;3.43;72.57
75420;BME280;63998;52.488;13.428;2023-04-26T04:03:54;100929.91;;;3.46;72.21
75420;BME280;63998;52.488;13.428;2023-04-26T04:06:19;100934.75;;;3.38;72.32
75420;BME280;63998;52.488;13.428;2023-04-26T04:08:46;100933.28;;;3.45;72.19
75420;BME280;63998;52.488;13.428;2023-04-26T04:11:11;100923.03;;;3.45;72.34
75420;BME280;63998;52.488;13.428;2023-04-26T04:13:36;100926.41;;;3.44;72.47
75420;BME280;63998;52.488;13.428;2023-04-26T04:16:04;100930.97;;;3.52;72.04
75420;BME280;63998;52.488;13.428;2023-04-26T04:18:31;100930.16;;;3.53;71.87
75420;BME280;63998;52.488;13.428;2023-04-26T04:20:58;100930.19;;;3.55;72.21
75420;BME280;63998;52.488;13.428;2023-04-26T04:23:23;100940.66;;;3.61;72.05
75420;BME280;63998;52.488;13.428;2023-04-26T04:25:49;100933.94;;;3.65;71.77
75420;BME280;63998;52.488;13.428;2023-04-26T04:28:15;100934.00;;;3.66;71.71
75420;BME280;63998;52.488;13.428;2023-04-26T04:30:43;100939.31;;;3.72;71.31
75420;BME280;63998;52.488;13.428;2023-04-26T04:33:08;100951.72;;;3.58;71.63
75420;BME280;63998;52.488;13.428;2023-04-26T04:35:34;100933.28;;;3.45;71.68
75420;BME280;63998;52.488;13.428;2023-04-26T04:38:02;100942.69;;;3.44;72.04
75420;BME280;63998;52.488;13.428;2023-04-26T04:40:30;100951.50;;;3.52;72.02
75420;BME280;63998;52.488;13.428;2023-04-26T04:42:56;100962.09;;;3.61;71.91
75420;BME280;63998;52.488;13.428;2023-04-26T04:45:22;100947.53;;;3.62;71.68
75420;BME280;63998;52.488;13.428;2023-04-26T04:47:47;100945.09;;;3.65;71.50
75420;BME280;63998;52.488;13.428;2023-04-26T04:50:13;100949.81;;;3.78;71.40
75420;BME280;63998;52.488;13.428;2023-04-26T04:52:39;100959.56;;;3.88;71.13
75420;BME280;63998;52.488;13.428;2023-04-26T04:55:05;100958.69;;;3.88;70.84
75420;BME280;63998;52.488;13.428;2023-04-26T04:57:33;100955.38;;;3.92;70.71
75420;BME280;63998;52.488;13.428;2023-04-26T04:59:59;100962.13;;;3.88;70.47
75420;BME280;63998;52.488;13.428;2023-04-26T05:02:31;100953.88;;;3.98;70.50
75420;BME280;63998;52.488;13.428;2023-04-26T05:04:56;100964.47;;;4.08;69.95
75420;BME280;63998;52.488;13.428;2023-04-26T05:07:22;100955.72;;;4.03;69.50
75420;BME280;63998;52.488;13.428;2023-04-26T05:09:55;100967.06;;;4.09;70.19
75420;BME280;63998;52.488;13.428;2023-04-26T05:12:22;100963.81;;;4.15;70.13
75420;BME280;63998;52.488;13.428;2023-04-26T05:14:48;100971.09;;;4.28;69.83
75420;BME280;63998;52.488;13.428;2023-04-26T05:17:13;100973.38;;;4.19;69.28
75420;BME280;63998;52.488;13.428;2023-04-26T05:19:39;100975.03;;;4.17;69.40
75420;BME280;63998;52.488;13.428;2023-04-26T05:22:04;100974.53;;;4.28;69.50
75420;BME280;63998;52.488;13.428;2023-04-26T05:24:29;100984.31;;;4.40;69.29
75420;BME280;63998;52.488;13.428;2023-04-26T05:26:57;100992.03;;;4.40;68.94
75420;BME280;63998;52.488;13.428;2023-04-26T05:29:28;100992.47;;;4.54;68.81
75420;BME280;63998;52.488;13.428;2023-04-26T05:31:54;100979.66;;;4.55;68.05
75420;BME280;63998;52.488;13.428;2023-04-26T05:34:19;100981.00;;;4.73;68.38
75420;BME280;63998;52.488;13.428;2023-04-26T05:36:47;100983.22;;;4.60;68.18
75420;BME280;63998;52.488;13.428;2023-04-26T05:39:12;100983.50;;;4.69;67.74
75420;BME280;63998;52.488;13.428;2023-04-26T05:41:38;101012.16;;;4.82;67.55
75420;BME280;63998;52.488;13.428;2023-04-26T05:44:03;100997.56;;;4.81;67.71
75420;BME280;63998;52.488;13.428;2023-04-26T05:46:31;100992.56;;;4.87;67.06
75420;BME280;63998;52.488;13.428;2023-04-26T05:48:59;100994.66;;;5.00;67.36
75420;BME280;63998;52.488;13.428;2023-04-26T05:51:26;100990.06;;;5.18;67.51
75420;BME280;63998;52.488;13.428;2023-04-26T05:53:52;100981.50;;;5.19;66.24
75420;BME280;63998;52.488;13.428;2023-04-26T05:56:17;100990.59;;;5.08;66.43
75420;BME280;63998;52.488;13.428;2023-04-26T05:58:42;100999.53;;;5.21;66.22
75420;BME280;63998;52.488;13.428;2023-04-26T06:01:10;100997.28;;;5.31;66.07
75420;BME280;63998;52.488;13.428;2023-04-26T06:03:36;100993.38;;;5.47;65.78
75420;BME280;63998;52.488;13.428;2023-04-26T06:06:02;101002.16;;;5.54;65.75
75420;BME280;63998;52.488;13.428;2023-04-26T06:08:27;101005.41;;;5.47;65.08
75420;BME280;63998;52.488;13.428;2023-04-26T06:10:53;100997.66;;;5.47;64.86
75420;BME280;63998;52.488;13.428;2023-04-26T06:13:18;101012.97;;;5.40;64.90
75420;BME280;63998;52.488;13.428;2023-04-26T06:15:44;101008.16;;;5.53;65.10
75420;BME280;63998;52.488;13.428;2023-04-26T06:18:09;101008.06;;;5.50;64.90
75420;BME280;63998;52.488;13.428;2023-04-26T06:20:34;101000.06;;;5.72;65.29
75420;BME280;63998;52.488;13.428;2023-04-26T06:23:00;101002.34;;;5.93;65.75
75420;BME280;63998;52.488;13.428;2023-04-26T06:25:27;101018.38;;;6.16;64.17
75420;BME280;63998;52.488;13.428;2023-04-26T06:27:57;101004.09;;;5.95;62.95
75420;BME280;63998;52.488;13.428;2023-04-26T06:30:25;101002.34;;;5.93;63.42
75420;BME280;63998;52.488;13.428;2023-04-26T06:32:50;101004.28;;;6.01;63.54
75420;BME280;63998;52.488;13.428;2023-04-26T06:35:16;100999.19;;;6.04;63.37
75420;BME280;63998;52.488;13.428;2023-04-26T06:37:41;101005.09;;;6.00;63.44
75420;BME280;63998;52.488;13.428;2023-04-26T06:40:10;101019.78;;;6.03;63.52
75420;BME280;63998;52.488;13.428;2023-04-26T06:42:35;101013.50;;;6.28;64.64
75420;BME280;63998;52.488;13.428;2023-04-26T06:45:01;101011.50;;;6.52;63.66
75420;BME280;63998;52.488;13.428;2023-04-26T06:47:26;101016.75;;;6.57;61.71
75420;BME280;63998;52.488;13.428;2023-04-26T06:49:54;101021.53;;;6.40;60.78
75420;BME280;63998;52.488;13.428;2023-04-26T06:52:20;101012.13;;;6.42;61.84
75420;BME280;63998;52.488;13.428;2023-04-26T06:54:46;101021.91;;;6.57;61.93
75420;BME280;63998;52.488;13.428;2023-04-26T06:57:11;101020.50;;;6.71;60.66
75420;BME280;63998;52.488;13.428;2023-04-26T06:59:36;101005.28;;;6.83;60.48
75420;BME280;63998;52.488;13.428;2023-04-26T07:02:02;101016.81;;;6.99;60.54
75420;BME280;63998;52.488;13.428;2023-04-26T07:04:27;101019.56;;;7.08;59.22
75420;BME280;63998;52.488;13.428;2023-04-26T07:06:55;101016.81;;;6.99;58.63
75420;BME280;63998;52.488;13.428;2023-04-26T07:09:21;101008.31;;;7.03;60.53
75420;BME280;63998;52.488;13.428;2023-04-26T07:11:47;101015.56;;;7.22;59.82
75420;BME280;63998;52.488;13.428;2023-04-26T07:14:15;101019.16;;;7.29;58.56
75420;BME280;63998;52.488;13.428;2023-04-26T07:16:43;101022.53;;;7.26;57.83
75420;BME280;63998;52.488;13.428;2023-04-26T07:19:09;101019.13;;;7.27;57.46
75420;BME280;63998;52.488;13.428;2023-04-26T07:21:35;101015.94;;;7.42;57.44
75420;BME280;63998;52.488;13.428;2023-04-26T07:24:00;101024.56;;;7.42;58.02
75420;BME280;63998;52.488;13.428;2023-04-26T07:26:31;101020.16;;;7.37;56.88
75420;BME280;63998;52.488;13.428;2023-04-26T07:28:59;101018.50;;;7.39;57.71
75420;BME280;63998;52.488;13.428;2023-04-26T07:31:25;101014.47;;;7.54;57.19
75420;BME280;63998;52.488;13.428;2023-04-26T07:33:50;101026.75;;;7.68;56.40
75420;BME280;63998;52.488;13.428;2023-04-26T07:36:15;101030.94;;;7.60;56.11
75420;BME280;63998;52.488;13.428;2023-04-26T07:38:41;101027.41;;;7.56;55.61
75420;BME280;63998;52.488;13.428;2023-04-26T07:41:07;101034.47;;;7.63;56.06
75420;BME280;63998;52.488;13.428;2023-04-26T07:43:32;101031.69;;;7.52;55.58
75420;BME280;63998;52.488;13.428;2023-04-26T07:46:00;101027.44;;;7.57;56.74
75420;BME280;63998;52.488;13.428;2023-04-26T07:48:26;101025.09;;;7.70;55.43
75420;BME280;63998;52.488;13.428;2023-04-26T07:50:52;101025.38;;;7.85;55.03
75420;BME280;63998;52.488;13.428;2023-04-26T07:53:17;101042.69;;;7.89;54.55
75420;BME280;63998;52.488;13.428;2023-04-26T07:55:42;101026.47;;;7.99;54.32
75420;BME280;63998;52.488;13.428;2023-04-26T07:58:08;101043.72;;;7.99;53.91
75420;BME280;63998;52.488;13.428;2023-04-26T08:00:36;101040.13;;;7.92;53.47
75420;BME280;63998;52.488;13.428;2023-04-26T08:03:04;101041.03;;;7.94;53.37
75420;BME280;63998;52.488;13.428;2023-04-26T08:05:29;101042.84;;;7.98;54.39
75420;BME280;63998;52.488;13.428;2023-04-26T08:07:55;101043.81;;;8.03;53.04
75420;BME280;63998;52.488;13.428;2023-04-26T08:10:20;101041.47;;;8.20;52.55
75420;BME280;63998;52.488;13.428;2023-04-26T08:12:45;101042.38;;;8.22;52.24
75420;BME280;63998;52.488;13.428;2023-04-26T08:15:11;101048.41;;;8.22;52.95
75420;BME280;63998;52.488;13.428;2023-04-26T08:17:36;101048.06;;;8.01;53.06
75420;BME280;63998;52.488;13.428;2023-04-26T08:20:02;101046.41;;;8.06;54.50
75420;BME280;63998;52.488;13.428;2023-04-26T08:22:30;101047.16;;;7.99;53.70
75420;BME280;63998;52.488;13.428;2023-04-26T08:24:55;101047.88;;;7.92;53.98
75420;BME280;63998;52.488;13.428;2023-04-26T08:27:20;101057.91;;;7.74;54.96
75420;BME280;63998;52.488;13.428;2023-04-26T08:29:46;101050.50;;;7.93;56.09
75420;BME280;63998;52.488;13.428;2023-04-26T08:32:12;101049.97;;;8.11;55.29
75420;BME280;63998;52.488;13.428;2023-04-26T08:34:39;101047.47;;;8.17;54.79
75420;BME280;63998;52.488;13.428;2023-04-26T08:37:09;101044.88;;;8.17;54.55
75420;BME280;63998;52.488;13.428;2023-04-26T08:39:35;101052.75;;;8.23;54.15
75420;BME280;63998;52.488;13.428;2023-04-26T08:42:12;101051.78;;;8.15;53.65
75420;BME280;63998;52.488;13.428;2023-04-26T08:44:43;101079.94;;;7.55;56.58
75420;BME280;63998;52.488;13.428;2023-04-26T08:47:15;101058.59;;;7.21;59.53
75420;BME280;63998;52.488;13.428;2023-04-26T08:49:45;101062.22;;;7.28;59.81
75420;BME280;63998;52.488;13.428;2023-04-26T08:52:20;101093.22;;;7.28;60.60
75420;BME280;63998;52.488;13.428;2023-04-26T08:54:49;101075.19;;;7.33;59.18
75420;BME280;63998;52.488;13.428;2023-04-26T08:57:19;101071.22;;;7.48;58.67
75420;BME280;63998;52.488;13.428;2023-04-26T08:59:47;101055.09;;;7.62;57.30
75420;BME280;63998;52.488;13.428;2023-04-26T09:02:16;101048.72;;;7.89;57.61
75420;BME280;63998;52.488;13.428;2023-04-26T09:04:42;101055.13;;;8.11;55.88
75420;BME280;63998;52.488;13.428;2023-04-26T09:07:10;101057.31;;;8.37;54.55
75420;BME280;63998;52.488;13.428;2023-04-26T09:09:41;101049.59;;;8.40;53.61
75420;BME280;63998;52.488;13.428;2023-04-26T09:12:07;101071.16;;;8.39;54.71
75420;BME280;63998;52.488;13.428;2023-04-26T09:14:37;101047.81;;;8.36;53.56
75420;BME280;63998;52.488;13.428;2023-04-26T09:17:02;101054.78;;;8.40;53.55
75420;BME280;63998;52.488;13.428;2023-04-26T09:19:40;101049.66;;;8.44;54.07
75420;BME280;63998;52.488;13.428;2023-04-26T09:22:11;101056.91;;;8.65;54.69
75420;BME280;63998;52.488;13.428;2023-04-26T09:24:46;101046.72;;;8.77;52.67
75420;BME280;63998;52.488;13.428;2023-04-26T09:27:15;101046.06;;;8.93;53.22
75420;BME280;63998;52.488;13.428;2023-04-26T09:30:01;101047.03;;;9.00;50.68
75420;BME280;63998;52.488;13.428;2023-04-26T09:32:51;101045.22;;;8.94;50.05
75420;BME280;63998;52.488;13.428;2023-04-26T09:35:36;101061.66;;;8.96;50.53
75420;BME280;63998;52.488;13.428;2023-04-26T09:40:48;101049.81;;;9.17;51.18
75420;BME280;63998;52.488;13.428;2023-04-26T09:43:16;101070.81;;;9.40;50.20
75420;BME280;63998;52.488;13.428;2023-04-26T09:45:48;101070.69;;;9.26;48.68
75420;BME280;63998;52.488;13.428;2023-04-26T09:48:24;101046.72;;;9.45;49.60
75420;BME280;63998;52.488;13.428;2023-04-26T09:51:15;101043.53;;;9.70;48.67
75420;BME280;63998;52.488;13.428;2023-04-26T09:53:41;101048.38;;;9.40;47.63
75420;BME280;63998;52.488;13.428;2023-04-26T09:56:28;101062.47;;;9.62;48.76
75420;BME280;63998;52.488;13.428;2023-04-26T09:58:58;101052.38;;;9.88;46.95
75420;BME280;63998;52.488;13.428;2023-04-26T10:01:25;101041.22;;;9.98;45.59
75420;BME280;63998;52.488;13.428;2023-04-26T10:03:59;101043.31;;;9.52;45.71
75420;BME280;63998;52.488;13.428;2023-04-26T10:06:26;101036.38;;;9.48;46.66
75420;BME280;63998;52.488;13.428;2023-04-26T10:08:53;101043.31;;;9.51;46.55
75420;BME280;63998;52.488;13.428;2023-04-26T10:11:19;101056.22;;;9.45;45.94
75420;BME280;63998;52.488;13.428;2023-04-26T10:13:45;101065.75;;;9.47;44.33
75420;BME280;63998;52.488;13.428;2023-04-26T10:16:12;101048.50;;;9.52;44.36
75420;BME280;63998;52.488;13.428;2023-04-26T10:18:38;101039.03;;;9.56;45.02
75420;BME280;63998;52.488;13.428;2023-04-26T10:21:19;101051.22;;;9.64;45.31
75420;BME280;63998;52.488;13.428;2023-04-26T10:23:46;101057.38;;;9.72;44.63
75420;BME280;63998;52.488;13.428;2023-04-26T10:26:51;101042.56;;;9.61;45.10
75420;BME280;63998;52.488;13.428;2023-04-26T10:29:24;101045.19;;;9.62;44.25
75420;BME280;63998;52.488;13.428;2023-04-26T10:34:33;101053.63;;;9.46;43.58
75420;BME280;63998;52.488;13.428;2023-04-26T10:37:17;101061.34;;;9.42;43.99
75420;BME280;63998;52.488;13.428;2023-04-26T10:39:44;101077.53;;;9.21;43.88
75420;BME280;63998;52.488;13.428;2023-04-26T10:44:58;101062.69;;;9.09;45.13
75420;BME280;63998;52.488;13.428;2023-04-26T10:47:33;101074.50;;;8.89;45.71
75420;BME280;63998;52.488;13.428;2023-04-26T10:50:05;101051.25;;;8.93;46.55
75420;BME280;63998;52.488;13.428;2023-04-26T10:53:04;101061.72;;;9.02;46.48
75420;BME280;63998;52.488;13.428;2023-04-26T10:55:49;101063.75;;;9.25;46.61
75420;BME280;63998;52.488;13.428;2023-04-26T10:58:31;101059.53;;;9.33;45.54
75420;BME280;63998;52.488;13.428;2023-04-26T11:01:09;101050.09;;;9.38;44.84
75420;BME280;63998;52.488;13.428;2023-04-26T11:04:00;101053.69;;;9.49;44.49
75420;BME280;63998;52.488;13.428;2023-04-26T11:06:51;101047.69;;;9.56;44.49
75420;BME280;63998;52.488;13.428;2023-04-26T11:09:36;101058.88;;;9.52;43.24
75420;BME280;63998;52.488;13.428;2023-04-26T11:12:12;101058.53;;;9.22;43.39
75420;BME280;63998;52.488;13.428;2023-04-26T11:14:38;101083.31;;;9.02;44.70
75420;BME280;63998;52.488;13.428;2023-04-26T11:17:06;101059.09;;;8.98;44.58
75420;BME280;63998;52.488;13.428;2023-04-26T11:19:37;101082.69;;;8.59;45.02
75420;BME280;63998;52.488;13.428;2023-04-26T11:22:05;101070.53;;;8.55;45.45
75420;BME280;63998;52.488;13.428;2023-04-26T11:24:32;101068.78;;;8.52;45.59
75420;BME280;63998;52.488;13.428;2023-04-26T11:27:01;101071.66;;;8.72;44.86
75420;BME280;63998;52.488;13.428;2023-04-26T11:29:32;101050.34;;;8.91;43.54
75420;BME280;63998;52.488;13.428;2023-04-26T11:32:00;101058.63;;;9.31;43.80
75420;BME280;63998;52.488;13.428;2023-04-26T11:34:33;101051.91;;;9.45;42.63
75420;BME280;63998;52.488;13.428;2023-04-26T11:37:01;101066.03;;;9.71;41.80
75420;BME280;63998;52.488;13.428;2023-04-26T11:39:26;101053.13;;;9.81;41.82
75420;BME280;63998;52.488;13.428;2023-04-26T11:42:03;101049.66;;;9.79;42.44
75420;BME280;63998;52.488;13.428;2023-04-26T11:44:30;101061.59;;;9.61;41.98
75420;BME280;63998;52.488;13.428;2023-04-26T11:46:55;101077.09;;;9.57;41.83
75420;BME280;63998;52.488;13.428;2023-04-26T11:49:20;101072.69;;;9.48;42.83
75420;BME280;63998;52.488;13.428;2023-04-26T11:51:47;101062.25;;;9.44;43.20
75420;BME280;63998;52.488;13.428;2023-04-26T11:54:29;101072.50;;;9.33;44.01
75420;BME280;63998;52.488;13.428;2023-04-26T11:56:56;101077.56;;;9.24;44.90
75420;BME280;63998;52.488;13.428;2023-04-26T11:59:23;101077.56;;;9.24;44.89
75420;BME280;63998;52.488;13.428;2023-04-26T12:01:49;101072.22;;;9.12;45.04
75420;BME280;63998;52.488;13.428;2023-04-26T12:04:15;101078.88;;;8.94;44.49
75420;BME280;63998;52.488;13.428;2023-04-26T12:06:43;101080.75;;;9.05;44.70
75420;BME280;63998;52.488;13.428;2023-04-26T12:09:10;101079.16;;;9.16;44.46
75420;BME280;63998;52.488;13.428;2023-04-26T12:11:39;101078.72;;;9.47;44.22
75420;BME280;63998;52.488;13.428;2023-04-26T12:14:05;101074.75;;;9.77;41.57
75420;BME280;63998;52.488;13.428;2023-04-26T12:16:36;101066.69;;;10.40;40.44
75420;BME280;63998;52.488;13.428;2023-04-26T12:19:06;101065.03;;;10.53;40.44
75420;BME280;63998;52.488;13.428;2023-04-26T12:21:42;101079.75;;;10.48;40.06
75420;BME280;63998;52.488;13.428;2023-04-26T12:24:23;101074.88;;;9.92;40.69
75420;BME280;63998;52.488;13.428;2023-04-26T12:26:49;101078.28;;;9.85;41.82
75420;BME280;63998;52.488;13.428;2023-04-26T12:29:17;101074.63;;;9.67;42.28
75420;BME280;63998;52.488;13.428;2023-04-26T12:31:45;101071.16;;;9.68;42.55
75420;BME280;63998;52.488;13.428;2023-04-26T12:34:11;101070.94;;;9.47;42.97
75420;BME280;63998;52.488;13.428;2023-04-26T12:36:39;101077.66;;;9.33;43.56
75420;BME280;63998;52.488;13.428;2023-04-26T12:39:04;101087.00;;;9.20;44.27
75420;BME280;63998;52.488;13.428;2023-04-26T12:41:30;101079.38;;;9.31;44.22
75420;BME280;63998;52.488;13.428;2023-04-26T12:43:56;101090.97;;;8.94;45.77
75420;BME280;63998;52.488;13.428;2023-04-26T12:46:21;101108.16;;;8.87;46.49
75420;BME280;63998;52.488;13.428;2023-04-26T12:48:46;101075.38;;;8.89;46.91
75420;BME280;63998;52.488;13.428;2023-04-26T12:51:12;101094.69;;;9.13;45.75
75420;BME280;63998;52.488;13.428;2023-04-26T12:53:37;101082.94;;;9.39;45.72
75420;BME280;63998;52.488;13.428;2023-04-26T12:56:07;101079.59;;;9.49;44.50
75420;BME280;63998;52.488;13.428;2023-04-26T12:58:33;101081.25;;;9.44;44.98
75420;BME280;63998;52.488;13.428;2023-04-26T13:00:58;101076.50;;;9.81;44.11
75420;BME280;63998;52.488;13.428;2023-04-26T13:03:23;101081.75;;;9.90;43.37